createdAt,value
2022-08-28T00:00:48.867Z,19.67
2022-08-28T00:01:48.829Z,19.67
2022-08-28T00:02:48.866Z,19.67
2022-08-28T00:03:48.824Z,19.63
2022-08-28T00:04:48.871Z,19.62
2022-08-28T00:05:48.790Z,19.62
2022-08-28T00:06:48.768Z,19.62
2022-08-28T00:07:48.751Z,19.60
2022-08-28T00:08:49.194Z,19.59
2022-08-28T00:09:48.727Z,19.57
2022-08-28T00:10:48.733Z,19.56
2022-08-28T00:11:48.710Z,19.56
2022-08-28T00:12:48.684Z,19.56
2022-08-28T00:13:48.691Z,19.56
2022-08-28T00:14:48.664Z,19.54
2022-08-28T00:15:48.703Z,19.52
2022-08-28T00:16:48.632Z,19.53
2022-08-28T00:17:48.615Z,19.50
2022-08-28T00:18:48.625Z,19.50
2022-08-28T00:19:48.588Z,19.50
2022-08-28T00:20:48.583Z,19.47
2022-08-28T00:21:48.559Z,19.44
2022-08-28T00:22:48.578Z,19.44
2022-08-28T00:23:48.550Z,19.42
2022-08-28T00:24:48.526Z,19.41
2022-08-28T00:25:48.525Z,19.41
2022-08-28T00:26:48.506Z,19.38
2022-08-28T00:27:48.482Z,19.38
2022-08-28T00:28:48.729Z,19.37
2022-08-28T00:29:48.453Z,19.37
2022-08-28T00:30:48.495Z,19.37
2022-08-28T00:31:48.425Z,19.37
2022-08-28T00:32:48.742Z,19.37
2022-08-28T00:33:48.407Z,19.35
2022-08-28T00:34:48.398Z,19.34
2022-08-28T00:35:48.376Z,19.34
2022-08-28T00:36:48.374Z,19.34
2022-08-28T00:37:48.362Z,19.32
2022-08-28T00:38:48.338Z,19.34
2022-08-28T00:39:48.321Z,19.32
2022-08-28T00:40:48.359Z,19.32
2022-08-28T00:41:48.294Z,19.31
2022-08-28T00:42:48.331Z,19.31
2022-08-28T00:43:48.265Z,19.27
2022-08-28T00:44:48.286Z,19.30
2022-08-28T00:45:48.243Z,19.27
2022-08-28T00:46:48.274Z,19.24
2022-08-28T00:47:48.215Z,19.22
2022-08-28T00:48:48.227Z,19.22
2022-08-28T00:49:48.202Z,19.22
2022-08-28T00:50:48.179Z,19.22
2022-08-28T00:51:48.166Z,19.20
2022-08-28T00:52:48.157Z,19.20
2022-08-28T00:53:48.154Z,19.17
2022-08-28T00:54:58.487Z,19.19
2022-08-28T00:55:48.114Z,19.15
2022-08-28T00:56:48.098Z,19.15
2022-08-28T00:57:48.081Z,19.13
2022-08-28T00:58:48.092Z,19.13
2022-08-28T00:59:48.058Z,19.13
2022-08-28T01:00:48.081Z,19.15
2022-08-28T01:01:48.107Z,19.13
2022-08-28T01:02:48.057Z,19.12
2022-08-28T01:03:48.020Z,19.09
2022-08-28T01:04:47.998Z,19.09
2022-08-28T01:05:48.043Z,19.09
2022-08-28T01:06:47.972Z,19.08
2022-08-28T01:07:47.948Z,19.07
2022-08-28T01:08:50.578Z,19.05
2022-08-28T01:09:47.923Z,19.04
2022-08-28T01:10:47.914Z,19.01
2022-08-28T01:11:47.896Z,19.04
2022-08-28T01:12:47.893Z,19.01
2022-08-28T01:13:47.884Z,19.00
2022-08-28T01:14:47.861Z,18.97
2022-08-28T01:15:47.885Z,18.97
2022-08-28T01:16:47.937Z,18.94
2022-08-28T01:17:47.812Z,18.93
2022-08-28T01:18:47.848Z,18.91
2022-08-28T01:19:47.790Z,18.89
2022-08-28T01:20:47.795Z,18.88
2022-08-28T01:21:47.762Z,18.88
2022-08-28T01:22:47.766Z,18.88
2022-08-28T01:23:47.752Z,18.86
2022-08-28T01:24:47.730Z,18.86
2022-08-28T01:25:47.708Z,18.85
2022-08-28T01:26:47.701Z,18.85
2022-08-28T01:27:47.692Z,18.85
2022-08-28T01:28:47.705Z,18.83
2022-08-28T01:29:47.992Z,18.83
2022-08-28T01:30:47.771Z,18.82
2022-08-28T01:31:47.629Z,18.82
2022-08-28T01:32:47.623Z,18.82
2022-08-28T01:33:47.626Z,18.81
2022-08-28T01:34:47.594Z,18.79
2022-08-28T01:35:47.574Z,18.79
2022-08-28T01:36:47.568Z,18.79
2022-08-28T01:37:47.573Z,18.79
2022-08-28T01:38:47.927Z,18.78
2022-08-28T01:39:47.519Z,18.79
2022-08-28T01:40:47.512Z,18.76
2022-08-28T01:41:47.494Z,18.74
2022-08-28T01:42:47.490Z,18.75
2022-08-28T01:43:47.483Z,18.74
2022-08-28T01:44:47.457Z,18.75
2022-08-28T01:45:47.444Z,18.74
2022-08-28T01:46:47.591Z,18.74
2022-08-28T01:47:47.439Z,18.71
2022-08-28T01:48:47.433Z,18.70
2022-08-28T01:49:47.392Z,18.71
2022-08-28T01:50:47.379Z,18.70
2022-08-28T01:51:47.364Z,18.67
2022-08-28T01:52:47.354Z,18.66
2022-08-28T01:53:47.349Z,18.64
2022-08-28T01:54:47.326Z,18.63
2022-08-28T01:55:47.315Z,18.60
2022-08-28T01:56:47.378Z,18.61
2022-08-28T01:57:47.281Z,18.60
2022-08-28T01:58:47.300Z,18.57
2022-08-28T01:59:47.260Z,18.57
2022-08-28T02:00:47.246Z,18.57
2022-08-28T02:01:47.339Z,18.56
2022-08-28T02:02:47.242Z,18.52
2022-08-28T02:03:47.288Z,18.52
2022-08-28T02:04:48.302Z,18.52
2022-08-28T02:05:47.184Z,18.51
2022-08-28T02:06:47.193Z,18.49
2022-08-28T02:07:47.147Z,18.49
2022-08-28T02:08:47.163Z,18.48
2022-08-28T02:09:47.142Z,18.45
2022-08-28T02:10:47.119Z,18.46
2022-08-28T02:11:47.159Z,18.46
2022-08-28T02:12:47.088Z,18.45
2022-08-28T02:13:47.351Z,18.45
2022-08-28T02:14:47.062Z,18.43
2022-08-28T02:15:47.107Z,18.43
2022-08-28T02:16:47.104Z,18.45
2022-08-28T02:17:47.014Z,18.43
2022-08-28T02:18:47.017Z,18.42
2022-08-28T02:19:46.992Z,18.39
2022-08-28T02:20:46.978Z,18.38
2022-08-28T02:21:46.962Z,18.36
2022-08-28T02:22:46.954Z,18.34
2022-08-28T02:23:46.976Z,18.36
2022-08-28T02:24:46.927Z,18.33
2022-08-28T02:25:46.906Z,18.33
2022-08-28T02:26:46.900Z,18.31
2022-08-28T02:27:46.883Z,18.33
2022-08-28T02:28:46.905Z,18.33
2022-08-28T02:29:46.853Z,18.33
2022-08-28T02:30:46.928Z,18.31
2022-08-28T02:31:46.830Z,18.30
2022-08-28T02:32:46.817Z,18.28
2022-08-28T02:33:46.831Z,18.26
2022-08-28T02:34:46.793Z,18.26
2022-08-28T02:35:46.777Z,18.24
2022-08-28T02:36:46.759Z,18.24
2022-08-28T02:37:47.637Z,18.21
2022-08-28T02:38:46.749Z,18.21
2022-08-28T02:39:46.725Z,18.18
2022-08-28T02:40:46.708Z,18.18
2022-08-28T02:41:46.699Z,18.15
2022-08-28T02:42:46.680Z,18.15
2022-08-28T02:43:46.722Z,18.12
2022-08-28T02:44:46.655Z,18.11
2022-08-28T02:45:46.685Z,18.11
2022-08-28T02:46:46.671Z,18.09
2022-08-28T02:47:46.621Z,18.08
2022-08-28T02:48:46.630Z,18.06
2022-08-28T02:49:46.591Z,18.03
2022-08-28T02:50:46.573Z,18.02
2022-08-28T02:51:46.567Z,17.99
2022-08-28T02:52:46.596Z,17.99
2022-08-28T02:53:46.562Z,17.97
2022-08-28T02:54:46.530Z,17.99
2022-08-28T02:55:46.529Z,17.97
2022-08-28T02:56:46.492Z,17.99
2022-08-28T02:57:46.539Z,17.97
2022-08-28T02:58:46.476Z,17.96
2022-08-28T02:59:46.454Z,17.96
2022-08-28T03:00:46.441Z,17.94
2022-08-28T03:01:46.510Z,17.93
2022-08-28T03:02:46.497Z,17.93
2022-08-28T03:03:46.419Z,17.90
2022-08-28T03:04:46.387Z,17.91
2022-08-28T03:05:46.376Z,17.88
2022-08-28T03:06:46.358Z,17.87
2022-08-28T03:07:46.350Z,17.86
2022-08-28T03:08:46.346Z,17.84
2022-08-28T03:09:46.320Z,17.83
2022-08-28T03:10:46.306Z,17.83
2022-08-28T03:11:46.294Z,17.81
2022-08-28T03:12:46.275Z,17.78
2022-08-28T03:13:46.285Z,17.78
2022-08-28T03:14:46.251Z,17.73
2022-08-28T03:15:46.239Z,17.72
2022-08-28T03:16:46.254Z,17.71
2022-08-28T03:17:46.216Z,17.68
2022-08-28T03:18:46.209Z,17.68
2022-08-28T03:19:46.185Z,17.66
2022-08-28T03:20:46.168Z,17.63
2022-08-28T03:21:46.178Z,17.59
2022-08-28T03:22:46.140Z,17.54
2022-08-28T03:23:46.149Z,17.52
2022-08-28T03:24:46.147Z,17.50
2022-08-28T03:25:46.106Z,17.47
2022-08-28T03:26:46.090Z,17.46
2022-08-28T03:27:46.079Z,17.43
2022-08-28T03:28:46.088Z,17.41
2022-08-28T03:29:46.081Z,17.37
2022-08-28T03:30:46.081Z,17.35
2022-08-28T03:31:46.071Z,17.34
2022-08-28T03:32:46.004Z,17.32
2022-08-28T03:33:46.037Z,17.30
2022-08-28T03:34:45.994Z,17.28
2022-08-28T03:35:45.974Z,17.27
2022-08-28T03:36:45.949Z,17.24
2022-08-28T03:37:45.952Z,17.24
2022-08-28T03:38:45.941Z,17.22
2022-08-28T03:39:45.915Z,17.20
2022-08-28T03:40:45.946Z,17.17
2022-08-28T03:41:45.939Z,17.17
2022-08-28T03:42:51.307Z,17.17
2022-08-28T03:43:45.882Z,17.16
2022-08-28T03:44:45.841Z,17.13
2022-08-28T03:45:45.901Z,17.12
2022-08-28T03:46:45.815Z,17.10
2022-08-28T03:47:45.803Z,17.09
2022-08-28T03:48:45.851Z,17.09
2022-08-28T03:49:45.802Z,17.09
2022-08-28T03:50:45.772Z,17.07
2022-08-28T03:51:45.757Z,17.06
2022-08-28T03:52:45.771Z,17.06
2022-08-28T03:53:45.734Z,17.04
2022-08-28T03:54:45.725Z,17.04
2022-08-28T03:55:45.701Z,17.01
2022-08-28T03:56:45.677Z,17.02
2022-08-28T03:57:45.684Z,16.99
2022-08-28T03:58:45.662Z,16.98
2022-08-28T03:59:45.642Z,16.98
2022-08-28T04:00:45.619Z,16.98
2022-08-28T04:01:45.650Z,16.97
2022-08-28T04:02:45.616Z,16.98
2022-08-28T04:03:45.685Z,16.99
2022-08-28T04:04:45.564Z,16.99
2022-08-28T04:05:45.556Z,16.99
2022-08-28T04:06:45.536Z,16.97
2022-08-28T04:07:45.535Z,16.94
2022-08-28T04:08:45.478Z,16.94
2022-08-28T04:09:45.505Z,16.92
2022-08-28T04:10:45.483Z,16.90
2022-08-28T04:11:45.431Z,16.88
2022-08-28T04:12:45.404Z,16.87
2022-08-28T04:13:45.405Z,16.84
2022-08-28T04:14:45.384Z,16.83
2022-08-28T04:15:45.372Z,16.84
2022-08-28T04:16:45.394Z,16.82
2022-08-28T04:17:45.344Z,16.82
2022-08-28T04:18:45.338Z,16.80
2022-08-28T04:19:45.335Z,16.77
2022-08-28T04:20:46.434Z,16.77
2022-08-28T04:21:45.287Z,16.77
2022-08-28T04:22:45.289Z,16.76
2022-08-28T04:23:45.271Z,16.74
2022-08-28T04:24:45.238Z,16.76
2022-08-28T04:25:45.233Z,16.73
2022-08-28T04:26:45.212Z,16.73
2022-08-28T04:27:45.204Z,16.72
2022-08-28T04:28:45.201Z,16.72
2022-08-28T04:29:45.176Z,16.73
2022-08-28T04:30:45.159Z,16.73
2022-08-28T04:31:45.227Z,16.70
2022-08-28T04:32:45.133Z,16.70
2022-08-28T04:33:45.135Z,16.69
2022-08-28T04:34:45.118Z,16.69
2022-08-28T04:35:45.094Z,16.70
2022-08-28T04:36:45.080Z,16.70
2022-08-28T04:37:45.115Z,16.69
2022-08-28T04:38:45.062Z,16.70
2022-08-28T04:39:45.064Z,16.69
2022-08-28T04:40:45.020Z,16.70
2022-08-28T04:41:45.051Z,16.70
2022-08-28T04:42:45.063Z,16.72
2022-08-28T04:43:45.000Z,16.69
2022-08-28T04:44:44.974Z,16.69
2022-08-28T04:45:45.043Z,16.69
2022-08-28T04:46:44.941Z,16.69
2022-08-28T04:47:44.967Z,16.65
2022-08-28T04:48:44.927Z,16.64
2022-08-28T04:49:44.904Z,16.65
2022-08-28T04:50:44.924Z,16.67
2022-08-28T04:51:44.903Z,16.65
2022-08-28T04:52:44.858Z,16.65
2022-08-28T04:53:44.865Z,16.64
2022-08-28T04:54:44.840Z,16.62
2022-08-28T04:55:54.184Z,16.62
2022-08-28T04:56:44.815Z,16.62
2022-08-28T04:57:44.801Z,16.62
2022-08-28T04:58:44.809Z,16.61
2022-08-28T04:59:44.817Z,16.64
2022-08-28T05:00:44.785Z,16.65
2022-08-28T05:01:44.746Z,16.62
2022-08-28T05:02:44.723Z,16.64
2022-08-28T05:03:44.737Z,16.61
2022-08-28T05:04:44.700Z,16.62
2022-08-28T05:05:44.689Z,16.62
2022-08-28T05:06:44.671Z,16.61
2022-08-28T05:07:45.028Z,16.61
2022-08-28T05:08:44.645Z,16.59
2022-08-28T05:09:44.636Z,16.59
2022-08-28T05:10:44.648Z,16.58
2022-08-28T05:11:44.614Z,16.59
2022-08-28T05:12:44.596Z,16.58
2022-08-28T05:13:44.581Z,16.57
2022-08-28T05:14:44.562Z,16.58
2022-08-28T05:15:44.565Z,16.58
2022-08-28T05:16:44.649Z,16.57
2022-08-28T05:17:44.540Z,16.57
2022-08-28T05:18:44.507Z,16.55
2022-08-28T05:19:44.496Z,16.55
2022-08-28T05:20:44.485Z,16.55
2022-08-28T05:21:44.467Z,16.54
2022-08-28T05:22:44.452Z,16.54
2022-08-28T05:23:44.463Z,16.52
2022-08-28T05:24:44.425Z,16.51
2022-08-28T05:25:44.415Z,16.51
2022-08-28T05:26:44.394Z,16.49
2022-08-28T05:27:44.386Z,16.51
2022-08-28T05:28:44.391Z,16.51
2022-08-28T05:29:44.359Z,16.49
2022-08-28T05:30:44.341Z,16.47
2022-08-28T05:31:44.373Z,16.47
2022-08-28T05:32:44.318Z,16.46
2022-08-28T05:33:44.324Z,16.44
2022-08-28T05:34:44.288Z,16.43
2022-08-28T05:35:44.276Z,16.42
2022-08-28T05:36:44.261Z,16.42
2022-08-28T05:37:44.252Z,16.43
2022-08-28T05:38:44.246Z,16.43
2022-08-28T05:39:44.228Z,16.43
2022-08-28T05:40:44.202Z,16.49
2022-08-28T05:41:44.220Z,16.51
2022-08-28T05:42:44.183Z,16.55
2022-08-28T05:43:44.182Z,16.58
2022-08-28T05:44:44.153Z,16.61
2022-08-28T05:45:44.212Z,16.70
2022-08-28T05:46:44.120Z,16.76
2022-08-28T05:47:44.111Z,16.79
2022-08-28T05:48:44.233Z,16.82
2022-08-28T05:49:44.110Z,16.87
2022-08-28T05:50:47.680Z,16.92
2022-08-28T05:51:44.059Z,16.97
2022-08-28T05:52:44.042Z,16.94
2022-08-28T05:53:44.070Z,16.94
2022-08-28T05:54:44.009Z,16.91
2022-08-28T05:55:44.007Z,16.91
2022-08-28T05:56:43.988Z,16.92
2022-08-28T05:57:43.977Z,16.94
2022-08-28T05:58:43.975Z,16.92
2022-08-28T05:59:43.948Z,16.94
2022-08-28T06:00:43.933Z,16.95
2022-08-28T06:01:44.003Z,16.98
2022-08-28T06:02:43.903Z,16.99
2022-08-28T06:03:43.962Z,16.97
2022-08-28T06:04:43.873Z,16.99
2022-08-28T06:05:43.864Z,17.02
2022-08-28T06:06:43.849Z,17.04
2022-08-28T06:07:43.839Z,17.06
2022-08-28T06:08:58.093Z,17.07
2022-08-28T06:09:43.818Z,17.09
2022-08-28T06:10:43.794Z,17.13
2022-08-28T06:11:44.750Z,17.16
2022-08-28T06:12:43.766Z,17.20
2022-08-28T06:13:43.776Z,17.24
2022-08-28T06:14:43.733Z,17.24
2022-08-28T06:15:43.914Z,17.24
2022-08-28T06:16:43.710Z,17.22
2022-08-28T06:17:43.718Z,17.22
2022-08-28T06:18:43.685Z,17.22
2022-08-28T06:19:43.676Z,17.27
2022-08-28T06:20:43.654Z,17.30
2022-08-28T06:21:43.644Z,17.31
2022-08-28T06:22:43.642Z,17.28
2022-08-28T06:23:43.615Z,17.28
2022-08-28T06:24:43.616Z,17.31
2022-08-28T06:25:43.588Z,17.31
2022-08-28T06:26:43.619Z,17.32
2022-08-28T06:27:43.580Z,17.34
2022-08-28T06:28:43.546Z,17.34
2022-08-28T06:29:43.544Z,17.35
2022-08-28T06:30:57.282Z,17.38
2022-08-28T06:31:43.569Z,17.39
2022-08-28T06:32:43.510Z,17.39
2022-08-28T06:33:43.480Z,17.38
2022-08-28T06:34:43.462Z,17.38
2022-08-28T06:35:43.469Z,17.37
2022-08-28T06:36:43.436Z,17.37
2022-08-28T06:37:43.438Z,17.37
2022-08-28T06:38:43.406Z,17.38
2022-08-28T06:39:43.397Z,17.39
2022-08-28T06:40:43.379Z,17.39
2022-08-28T06:41:43.371Z,17.39
2022-08-28T06:42:43.367Z,17.39
2022-08-28T06:43:43.344Z,17.38
2022-08-28T06:44:43.435Z,17.39
2022-08-28T06:45:43.359Z,17.41
2022-08-28T06:46:43.298Z,17.41
2022-08-28T06:47:43.304Z,17.45
2022-08-28T06:48:43.270Z,17.45
2022-08-28T06:49:43.260Z,17.47
2022-08-28T06:50:43.250Z,17.47
2022-08-28T06:51:43.230Z,17.46
2022-08-28T06:52:43.244Z,17.49
2022-08-28T06:53:43.201Z,17.50
2022-08-28T06:54:55.364Z,17.54
2022-08-28T06:55:43.182Z,17.57
2022-08-28T06:56:43.167Z,17.59
2022-08-28T06:57:43.174Z,17.66
2022-08-28T06:58:43.139Z,17.65
2022-08-28T06:59:43.126Z,17.66
2022-08-28T07:00:43.111Z,17.65
2022-08-28T07:01:43.137Z,17.66
2022-08-28T07:02:43.403Z,17.69
2022-08-28T07:03:44.277Z,17.73
2022-08-28T07:04:43.071Z,17.75
2022-08-28T07:05:43.040Z,17.76
2022-08-28T07:06:43.041Z,17.78
2022-08-28T07:07:43.028Z,17.78
2022-08-28T07:08:43.002Z,17.78
2022-08-28T07:09:42.989Z,17.79
2022-08-28T07:10:42.975Z,17.81
2022-08-28T07:11:42.961Z,17.86
2022-08-28T07:12:42.971Z,17.90
2022-08-28T07:13:42.933Z,17.94
2022-08-28T07:14:42.919Z,17.97
2022-08-28T07:15:42.963Z,17.99
2022-08-28T07:16:42.952Z,17.96
2022-08-28T07:17:42.886Z,17.97
2022-08-28T07:18:42.863Z,17.96
2022-08-28T07:19:42.852Z,17.97
2022-08-28T07:20:42.844Z,18.01
2022-08-28T07:21:42.820Z,18.03
2022-08-28T07:22:42.840Z,18.09
2022-08-28T07:23:42.790Z,18.13
2022-08-28T07:24:42.788Z,18.17
2022-08-28T07:25:42.776Z,18.18
2022-08-28T07:26:42.783Z,18.13
2022-08-28T07:27:42.765Z,18.13
2022-08-28T07:28:42.730Z,18.18
2022-08-28T07:29:42.711Z,18.21
2022-08-28T07:30:42.747Z,18.27
2022-08-28T07:31:42.692Z,18.27
2022-08-28T07:32:42.692Z,18.28
2022-08-28T07:33:42.666Z,18.31
2022-08-28T07:34:42.651Z,18.31
2022-08-28T07:35:42.629Z,18.31
2022-08-28T07:36:42.634Z,18.33
2022-08-28T07:37:42.630Z,18.30
2022-08-28T07:38:42.600Z,18.28
2022-08-28T07:39:42.587Z,18.33
2022-08-28T07:40:42.566Z,18.33
2022-08-28T07:41:42.902Z,18.26
2022-08-28T07:42:42.572Z,18.27
2022-08-28T07:43:42.528Z,18.30
2022-08-28T07:44:42.513Z,18.38
2022-08-28T07:45:42.533Z,18.48
2022-08-28T07:46:42.499Z,18.52
2022-08-28T07:47:42.485Z,18.56
2022-08-28T07:48:42.469Z,18.66
2022-08-28T07:49:42.446Z,18.67
2022-08-28T07:50:42.439Z,18.68
2022-08-28T07:51:42.445Z,18.57
2022-08-28T07:52:42.418Z,18.58
2022-08-28T07:53:42.387Z,18.54
2022-08-28T07:54:42.382Z,18.57
2022-08-28T07:55:42.366Z,18.63
2022-08-28T07:56:42.361Z,18.63
2022-08-28T07:57:42.354Z,18.67
2022-08-28T07:58:42.340Z,18.75
2022-08-28T07:59:42.489Z,18.75
2022-08-28T08:00:42.301Z,18.81
2022-08-28T08:01:42.365Z,18.79
2022-08-28T08:02:42.294Z,18.79
2022-08-28T08:03:42.308Z,18.71
2022-08-28T08:04:42.247Z,18.71
2022-08-28T08:05:42.230Z,18.75
2022-08-28T08:06:42.234Z,18.75
2022-08-28T08:07:42.231Z,18.79
2022-08-28T08:08:42.192Z,18.78
2022-08-28T08:09:42.190Z,18.79
2022-08-28T08:10:42.171Z,18.79
2022-08-28T08:11:42.154Z,18.81
2022-08-28T08:12:42.228Z,18.83
2022-08-28T08:13:42.129Z,18.86
2022-08-28T08:14:42.115Z,18.88
2022-08-28T08:15:42.148Z,18.89
2022-08-28T08:16:42.091Z,18.89
2022-08-28T08:17:42.119Z,18.88
2022-08-28T08:18:42.061Z,18.94
2022-08-28T08:19:42.065Z,19.05
2022-08-28T08:20:42.046Z,19.17
2022-08-28T08:21:42.044Z,19.27
2022-08-28T08:22:42.006Z,19.37
2022-08-28T08:23:42.005Z,19.45
2022-08-28T08:24:41.999Z,19.53
2022-08-28T08:25:41.968Z,19.59
2022-08-28T08:26:41.957Z,19.70
2022-08-28T08:27:43.171Z,19.81
2022-08-28T08:28:41.933Z,19.90
2022-08-28T08:29:41.917Z,19.97
2022-08-28T08:30:41.907Z,19.97
2022-08-28T08:31:44.041Z,20.00
2022-08-28T08:32:41.897Z,20.02
2022-08-28T08:33:41.860Z,20.08
2022-08-28T08:34:41.848Z,20.19
2022-08-28T08:35:41.829Z,20.36
2022-08-28T08:36:41.845Z,20.68
2022-08-28T08:37:41.813Z,21.20
2022-08-28T08:38:41.796Z,21.73
2022-08-28T08:39:41.778Z,22.25
2022-08-28T08:40:41.860Z,22.71
2022-08-28T08:41:41.751Z,23.34
2022-08-28T08:42:41.763Z,23.66
2022-08-28T08:43:41.725Z,23.78
2022-08-28T08:44:41.721Z,23.86
2022-08-28T08:45:41.702Z,24.34
2022-08-28T08:46:41.779Z,24.70
2022-08-28T08:47:41.690Z,25.08
2022-08-28T08:48:41.709Z,25.28
2022-08-28T08:49:41.649Z,25.22
2022-08-28T08:50:41.642Z,25.06
2022-08-28T08:51:41.616Z,24.79
2022-08-28T08:52:41.932Z,24.71
2022-08-28T08:53:41.592Z,25.06
2022-08-28T08:54:41.601Z,25.18
2022-08-28T08:55:41.568Z,25.15
2022-08-28T08:56:41.560Z,25.30
2022-08-28T08:57:41.553Z,25.18
2022-08-28T08:58:41.533Z,25.21
2022-08-28T08:59:41.511Z,25.55
2022-08-28T09:00:41.507Z,25.58
2022-08-28T09:01:41.540Z,25.36
2022-08-28T09:02:41.541Z,25.31
2022-08-28T09:03:41.464Z,24.33
2022-08-28T09:04:41.470Z,23.60
2022-08-28T09:05:41.435Z,22.92
2022-08-28T09:06:41.429Z,22.41
2022-08-28T09:07:41.423Z,22.46
2022-08-28T09:08:41.413Z,22.30
2022-08-28T09:09:41.389Z,21.91
2022-08-28T09:10:41.378Z,22.27
2022-08-28T09:11:41.413Z,22.98
2022-08-28T09:12:41.366Z,23.34
2022-08-28T09:13:41.338Z,23.31
2022-08-28T09:14:41.335Z,23.85
2022-08-28T09:15:42.560Z,24.28
2022-08-28T09:16:41.304Z,24.85
2022-08-28T09:17:41.310Z,25.03
2022-08-28T09:18:41.278Z,25.12
2022-08-28T09:19:41.256Z,25.15
2022-08-28T09:20:41.247Z,25.30
2022-08-28T09:21:41.230Z,25.81
2022-08-28T09:22:41.373Z,26.11
2022-08-28T09:23:41.218Z,26.49
2022-08-28T09:24:41.198Z,26.19
2022-08-28T09:25:41.185Z,26.00
2022-08-28T09:26:41.172Z,25.95
2022-08-28T09:27:41.178Z,25.77
2022-08-28T09:28:41.146Z,25.66
2022-08-28T09:29:41.129Z,25.33
2022-08-28T09:30:41.226Z,25.19
2022-08-28T09:31:41.129Z,25.49
2022-08-28T09:32:41.115Z,25.55
2022-08-28T09:33:41.737Z,25.66
2022-08-28T09:34:41.074Z,25.70
2022-08-28T09:35:41.066Z,25.64
2022-08-28T09:36:41.054Z,26.01
2022-08-28T09:37:41.079Z,26.26
2022-08-28T09:38:41.025Z,26.08
2022-08-28T09:39:41.004Z,25.90
2022-08-28T09:40:41.032Z,25.92
2022-08-28T09:41:40.980Z,25.90
2022-08-28T09:42:40.987Z,26.08
2022-08-28T09:43:40.982Z,25.88
2022-08-28T09:44:40.949Z,25.21
2022-08-28T09:45:40.945Z,25.12
2022-08-28T09:46:40.967Z,25.36
2022-08-28T09:47:46.517Z,25.28
2022-08-28T09:48:40.905Z,25.55
2022-08-28T09:49:40.879Z,25.70
2022-08-28T09:50:40.870Z,25.64
2022-08-28T09:51:40.854Z,25.68
2022-08-28T09:52:40.864Z,25.86
2022-08-28T09:53:40.829Z,25.83
2022-08-28T09:54:40.823Z,26.11
2022-08-28T09:55:40.806Z,26.00
2022-08-28T09:56:40.798Z,26.12
2022-08-28T09:57:40.820Z,26.49
2022-08-28T09:58:40.772Z,26.70
2022-08-28T09:59:40.756Z,26.65
2022-08-28T10:00:40.748Z,26.57
2022-08-28T10:01:40.820Z,26.64
2022-08-28T10:02:40.734Z,26.78
2022-08-28T10:03:40.705Z,26.85
2022-08-28T10:04:40.760Z,26.83
2022-08-28T10:05:40.680Z,26.83
2022-08-28T10:06:43.587Z,26.80
2022-08-28T10:07:40.678Z,26.93
2022-08-28T10:08:40.650Z,26.76
2022-08-28T10:09:46.708Z,26.53
2022-08-28T10:10:40.630Z,26.39
2022-08-28T10:11:44.232Z,26.15
2022-08-28T10:12:40.628Z,26.33
2022-08-28T10:13:40.584Z,26.64
2022-08-28T10:14:40.577Z,26.65
2022-08-28T10:15:43.253Z,26.67
2022-08-28T10:16:40.564Z,26.67
2022-08-28T10:17:40.570Z,26.64
2022-08-28T10:18:40.527Z,26.70
2022-08-28T10:19:40.508Z,26.41
2022-08-28T10:20:40.504Z,26.43
2022-08-28T10:21:40.525Z,26.52
2022-08-28T10:22:40.531Z,26.68
2022-08-28T10:23:40.463Z,26.52
2022-08-28T10:24:40.508Z,26.19
2022-08-28T10:25:40.439Z,26.05
2022-08-28T10:26:40.445Z,25.78
2022-08-28T10:27:40.446Z,26.03
2022-08-28T10:28:40.410Z,26.03
2022-08-28T10:29:40.387Z,26.33
2022-08-28T10:30:40.417Z,26.34
2022-08-28T10:31:40.382Z,26.43
2022-08-28T10:32:40.358Z,26.51
2022-08-28T10:33:40.339Z,26.34
2022-08-28T10:34:40.336Z,26.11
2022-08-28T10:35:40.315Z,25.96
2022-08-28T10:36:40.322Z,26.03
2022-08-28T10:37:40.289Z,26.00
2022-08-28T10:38:40.283Z,26.11
2022-08-28T10:39:40.266Z,26.36
2022-08-28T10:40:40.366Z,26.57
2022-08-28T10:41:40.266Z,26.28
2022-08-28T10:42:40.232Z,26.01
2022-08-28T10:43:40.219Z,25.89
2022-08-28T10:44:40.227Z,25.90
2022-08-28T10:45:40.226Z,26.16
2022-08-28T10:46:40.265Z,26.20
2022-08-28T10:47:40.170Z,26.34
2022-08-28T10:48:40.160Z,26.41
2022-08-28T10:49:40.144Z,26.57
2022-08-28T10:50:40.137Z,26.56
2022-08-28T10:51:43.660Z,26.42
2022-08-28T10:52:40.113Z,26.03
2022-08-28T10:53:40.097Z,25.88
2022-08-28T10:54:40.086Z,25.77
2022-08-28T10:55:40.076Z,25.85
2022-08-28T10:56:40.079Z,25.71
2022-08-28T10:57:40.201Z,25.67
2022-08-28T10:58:40.044Z,26.05
2022-08-28T10:59:42.250Z,26.53
2022-08-28T11:00:40.015Z,26.41
2022-08-28T11:01:40.066Z,26.31
2022-08-28T11:02:40.108Z,25.46
2022-08-28T11:03:39.972Z,25.70
2022-08-28T11:04:39.969Z,26.11
2022-08-28T11:05:39.952Z,25.95
2022-08-28T11:06:39.950Z,25.33
2022-08-28T11:07:39.933Z,24.91
2022-08-28T11:08:39.921Z,24.56
2022-08-28T11:09:39.906Z,24.47
2022-08-28T11:10:39.891Z,24.56
2022-08-28T11:11:39.898Z,24.62
2022-08-28T11:12:39.866Z,24.85
2022-08-28T11:13:39.856Z,24.96
2022-08-28T11:14:48.183Z,25.27
2022-08-28T11:15:39.840Z,25.66
2022-08-28T11:16:40.315Z,25.61
2022-08-28T11:17:39.808Z,25.90
2022-08-28T11:18:39.791Z,26.12
2022-08-28T11:19:43.990Z,25.85
2022-08-28T11:20:39.846Z,26.21
2022-08-28T11:21:39.775Z,26.39
2022-08-28T11:22:39.740Z,26.19
2022-08-28T11:23:39.766Z,26.01
2022-08-28T11:24:42.983Z,25.77
2022-08-28T11:25:39.711Z,25.63
2022-08-28T11:26:39.709Z,25.23
2022-08-28T11:27:39.700Z,25.12
2022-08-28T11:28:39.674Z,24.94
2022-08-28T11:29:39.668Z,25.08
2022-08-28T11:30:39.669Z,25.14
2022-08-28T11:31:39.656Z,25.16
2022-08-28T11:32:41.427Z,25.14
2022-08-28T11:33:39.632Z,25.16
2022-08-28T11:34:39.602Z,25.28
2022-08-28T11:35:39.593Z,25.31
2022-08-28T11:36:39.594Z,25.41
2022-08-28T11:37:39.566Z,25.75
2022-08-28T11:38:39.549Z,25.66
2022-08-28T11:39:39.544Z,25.53
2022-08-28T11:40:39.628Z,25.49
2022-08-28T11:41:39.527Z,25.59
2022-08-28T11:42:39.528Z,25.90
2022-08-28T11:43:39.489Z,25.96
2022-08-28T11:44:39.478Z,26.23
2022-08-28T11:45:40.045Z,26.10
2022-08-28T11:46:39.576Z,25.86
2022-08-28T11:47:39.443Z,25.86
2022-08-28T11:48:39.426Z,25.85
2022-08-28T11:49:39.436Z,25.56
2022-08-28T11:50:39.405Z,25.06
2022-08-28T11:51:39.432Z,24.89
2022-08-28T11:52:39.379Z,24.71
2022-08-28T11:53:39.371Z,24.68
2022-08-28T11:54:39.357Z,24.96
2022-08-28T11:55:39.356Z,24.85
2022-08-28T11:56:39.344Z,24.59
2022-08-28T11:57:39.322Z,24.55
2022-08-28T11:58:39.306Z,24.37
2022-08-28T11:59:39.302Z,24.53
2022-08-28T12:00:39.308Z,24.74
2022-08-28T12:01:39.305Z,24.62
2022-08-28T12:02:39.443Z,24.68
2022-08-28T12:03:39.247Z,24.79
2022-08-28T12:04:39.304Z,24.90
2022-08-28T12:05:39.222Z,25.00
2022-08-28T12:06:39.220Z,25.18
2022-08-28T12:07:39.201Z,25.28
2022-08-28T12:08:39.179Z,25.45
2022-08-28T12:09:39.180Z,25.64
2022-08-28T12:10:39.177Z,25.67
2022-08-28T12:11:39.163Z,25.61
2022-08-28T12:12:39.145Z,25.45
2022-08-28T12:13:39.121Z,25.14
2022-08-28T12:14:39.104Z,24.90
2022-08-28T12:15:39.139Z,24.59
2022-08-28T12:16:39.098Z,24.29
2022-08-28T12:17:39.077Z,24.18
2022-08-28T12:18:39.053Z,24.15
2022-08-28T12:19:40.233Z,24.11
2022-08-28T12:20:39.028Z,24.19
2022-08-28T12:21:39.034Z,24.19
2022-08-28T12:22:39.020Z,24.08
2022-08-28T12:23:39.010Z,24.10
2022-08-28T12:24:38.981Z,24.15
2022-08-28T12:25:38.977Z,24.10
2022-08-28T12:26:38.970Z,24.06
2022-08-28T12:27:38.950Z,24.18
2022-08-28T12:28:38.924Z,24.28
2022-08-28T12:29:38.924Z,24.22
2022-08-28T12:30:38.967Z,24.21
2022-08-28T12:31:38.913Z,24.33
2022-08-28T12:32:38.889Z,24.26
2022-08-28T12:33:38.870Z,24.34
2022-08-28T12:34:38.851Z,24.47
2022-08-28T12:35:38.840Z,24.55
2022-08-28T12:36:38.837Z,24.44
2022-08-28T12:37:51.250Z,24.44
2022-08-28T12:38:38.816Z,24.41
2022-08-28T12:39:38.790Z,24.40
2022-08-28T12:40:38.842Z,24.23
2022-08-28T12:41:38.791Z,24.23
2022-08-28T12:42:38.747Z,24.34
2022-08-28T12:43:41.622Z,24.43
2022-08-28T12:44:38.731Z,24.58
2022-08-28T12:45:38.776Z,24.59
2022-08-28T12:46:38.765Z,24.71
2022-08-28T12:47:38.693Z,24.84
2022-08-28T12:48:38.673Z,25.00
2022-08-28T12:49:38.662Z,25.23
2022-08-28T12:50:38.643Z,25.33
2022-08-28T12:51:38.658Z,25.23
2022-08-28T12:52:38.655Z,25.06